createdAt,value
2018-11-21T00:07:35.355Z,14.20
2018-11-21T00:10:22.727Z,15.77
2018-11-21T00:18:48.032Z,14.63
2018-11-21T00:21:16.099Z,15.97
2018-11-21T00:23:44.066Z,14.97
2018-11-21T00:26:31.435Z,14.30
2018-11-21T00:29:18.812Z,15.67
2018-11-21T00:32:12.112Z,14.17
2018-11-21T00:40:37.760Z,15.27
2018-11-21T00:43:25.109Z,15.77
2018-11-21T01:03:52.225Z,15.63
2018-11-21T01:06:39.564Z,14.63
2018-11-21T01:12:07.602Z,15.10
2018-11-21T01:14:54.980Z,14.00
2018-11-21T01:20:47.109Z,14.90
2018-11-21T01:47:18.239Z,16.47
2018-11-21T01:50:05.675Z,14.80
2018-11-21T02:07:52.509Z,16.00
2018-11-21T02:43:20.000Z,15.93
2018-11-21T02:45:48.039Z,15.83
2018-11-21T02:48:35.433Z,15.43
2018-11-21T02:51:22.776Z,17.00
2018-11-21T02:57:14.711Z,15.77
2018-11-21T02:59:42.679Z,17.13
2018-11-21T03:02:30.020Z,16.30
2018-11-21T03:05:17.598Z,15.67
2018-11-21T03:08:10.483Z,16.00
2018-11-21T03:10:38.425Z,15.60
2018-11-21T03:13:28.302Z,15.43
2018-11-21T03:16:13.105Z,17.13
2018-11-21T03:27:37.041Z,16.10
2018-11-21T03:30:06.473Z,16.03
2018-11-21T03:32:53.835Z,17.13
2018-11-21T03:47:42.365Z,16.80
2018-11-21T03:59:22.015Z,16.10
2018-11-21T04:01:49.864Z,16.33
2018-11-21T04:04:37.196Z,18.07
2018-11-21T04:07:24.564Z,16.47
2018-11-21T04:15:55.382Z,16.23
2018-11-21T04:18:23.313Z,17.50
2018-11-21T04:21:11.396Z,16.53
2018-11-21T04:23:39.340Z,16.03
2018-11-21T04:26:26.701Z,16.60
2018-11-21T04:28:54.601Z,16.83
2018-11-21T04:31:22.534Z,16.37
2018-11-21T04:34:09.878Z,16.37
2018-11-21T04:36:37.923Z,16.57
2018-11-21T04:39:07.824Z,15.57
2018-11-21T04:41:35.668Z,16.07
2018-11-21T04:44:23.002Z,17.07
2018-11-21T04:50:04.544Z,17.10
2018-11-21T04:52:32.503Z,17.07
2018-11-21T04:55:00.443Z,17.93
2018-11-21T04:57:28.347Z,16.80
2018-11-21T04:59:56.280Z,17.07
2018-11-21T05:02:24.284Z,17.30
2018-11-21T05:05:12.032Z,17.40
2018-11-21T05:07:39.932Z,17.43
2018-11-21T05:10:08.041Z,17.90
2018-11-21T05:12:55.393Z,16.53
2018-11-21T05:15:23.339Z,18.10
2018-11-21T05:17:51.247Z,16.80
2018-11-21T05:20:19.178Z,16.40
2018-11-21T05:23:06.538Z,17.10
2018-11-21T05:25:34.549Z,17.70
2018-11-21T05:28:02.529Z,16.90
2018-11-21T05:30:49.860Z,17.40
2018-11-21T05:33:17.861Z,16.23
2018-11-21T05:36:05.266Z,18.37
2018-11-21T05:38:33.237Z,17.03
2018-11-21T05:41:20.564Z,15.97
2018-11-21T05:43:48.520Z,16.67
2018-11-21T05:46:16.473Z,16.67
2018-11-21T05:49:03.799Z,17.37
2018-11-21T05:51:31.983Z,24.17
2018-11-21T05:53:59.871Z,18.93
2018-11-21T05:56:27.782Z,19.33
2018-11-21T05:59:15.131Z,18.43
2018-11-21T06:01:43.068Z,18.27
2018-11-21T06:04:10.997Z,18.37
2018-11-21T06:06:38.951Z,18.13
2018-11-21T06:09:26.675Z,17.23
2018-11-21T06:11:54.212Z,19.07
2018-11-21T06:14:22.142Z,20.90
2018-11-21T06:17:09.745Z,17.13
2018-11-21T06:19:57.107Z,16.37
2018-11-21T06:22:25.097Z,16.43
2018-11-21T06:25:13.022Z,16.30
2018-11-21T06:27:41.132Z,16.17
2018-11-21T06:30:09.841Z,15.87
2018-11-21T06:32:57.186Z,16.50
2018-11-21T06:35:25.127Z,16.40
2018-11-21T06:37:53.070Z,16.17
2018-11-21T06:40:21.027Z,18.10
2018-11-21T06:43:08.206Z,17.03
2018-11-21T06:45:36.114Z,16.23
2018-11-21T06:48:04.083Z,16.03
2018-11-21T06:50:32.234Z,16.63
2018-11-21T06:53:00.627Z,16.00
2018-11-21T06:55:28.567Z,14.50
2018-11-21T06:57:56.737Z,17.07
2018-11-21T07:00:24.760Z,17.77
2018-11-21T07:02:52.674Z,16.70
2018-11-21T07:05:20.654Z,16.67
2018-11-21T07:07:48.628Z,15.93
2018-11-21T07:10:16.919Z,15.70
2018-11-21T07:13:07.696Z,15.60
2018-11-21T07:19:10.395Z,15.70
2018-11-21T07:21:38.664Z,17.20
2018-11-21T07:24:07.472Z,17.10
2018-11-21T07:26:35.637Z,17.20
2018-11-21T07:29:03.906Z,17.03
2018-11-21T07:31:51.475Z,16.93
2018-11-21T07:34:19.719Z,17.60
2018-11-21T07:36:48.544Z,16.43
2018-11-21T07:39:16.719Z,16.90
2018-11-21T07:41:44.938Z,16.87
2018-11-21T07:44:32.480Z,16.40
2018-11-21T07:47:00.713Z,16.03
2018-11-21T07:49:28.903Z,16.57
2018-11-21T07:51:57.553Z,16.57
2018-11-21T07:54:27.026Z,16.57
2018-11-21T07:57:14.799Z,16.23
2018-11-21T08:00:02.173Z,15.60
2018-11-21T08:05:31.826Z,16.07
2018-11-21T08:08:19.115Z,16.57
2018-11-21T08:11:18.025Z,16.13
2018-11-21T08:14:03.727Z,15.30
2018-11-21T08:17:00.806Z,16.67
2018-11-21T08:19:43.679Z,18.60
2018-11-21T08:22:35.908Z,14.77
2018-11-21T08:25:21.884Z,15.30
2018-11-21T08:28:07.486Z,15.60
2018-11-21T08:30:35.437Z,15.37
2018-11-21T08:33:03.344Z,15.33
2018-11-21T08:35:31.268Z,15.47
2018-11-21T08:38:18.616Z,16.50
2018-11-21T08:41:05.982Z,14.67
2018-11-21T08:43:59.452Z,14.77
2018-11-21T08:49:25.886Z,14.73
2018-11-21T08:51:53.843Z,15.20
2018-11-21T08:54:41.194Z,13.47
2018-11-21T08:57:09.103Z,14.17
2018-11-21T08:59:37.049Z,13.23
2018-11-21T09:02:05.015Z,14.00
2018-11-21T09:04:52.361Z,13.53
2018-11-21T09:07:20.331Z,13.17
2018-11-21T09:09:48.287Z,12.70
2018-11-21T09:12:35.618Z,13.70
2018-11-21T09:15:03.764Z,13.23
2018-11-21T09:17:51.104Z,12.53
2018-11-21T09:20:19.031Z,13.23
2018-11-21T09:22:47.006Z,12.13
2018-11-21T09:25:14.940Z,12.93
2018-11-21T09:27:43.351Z,13.07
2018-11-21T09:30:12.917Z,12.10
2018-11-21T09:32:40.943Z,12.93
2018-11-21T09:35:09.870Z,12.63
2018-11-21T09:37:57.209Z,12.50
2018-11-21T09:40:25.195Z,12.37
2018-11-21T09:42:54.502Z,12.70
2018-11-21T09:45:23.210Z,13.03
2018-11-21T09:47:51.197Z,12.57
2018-11-21T09:50:23.878Z,13.10
2018-11-21T09:52:53.017Z,12.23
2018-11-21T09:55:20.968Z,12.03
2018-11-21T09:57:48.947Z,12.03
2018-11-21T10:00:36.282Z,11.00
2018-11-21T10:03:09.029Z,11.73
2018-11-21T10:05:36.961Z,11.77
2018-11-21T10:08:10.154Z,11.00
2018-11-21T10:10:38.058Z,11.90
2018-11-21T10:13:05.965Z,10.93
2018-11-21T10:15:53.316Z,11.83
2018-11-21T10:18:21.315Z,12.07
2018-11-21T10:20:49.243Z,11.90
2018-11-21T10:23:17.220Z,10.57
2018-11-21T10:25:45.216Z,12.20
2018-11-21T10:28:13.142Z,11.07
2018-11-21T10:30:41.115Z,11.80
2018-11-21T10:33:09.054Z,11.07
2018-11-21T10:35:37.048Z,10.93
2018-11-21T10:38:24.756Z,12.00
2018-11-21T10:41:17.850Z,12.07
2018-11-21T10:43:45.778Z,11.67
2018-11-21T10:46:13.769Z,12.53
2018-11-21T10:48:41.697Z,12.07
2018-11-21T10:51:09.633Z,11.53
2018-11-21T10:53:37.569Z,12.10
2018-11-21T10:56:06.766Z,10.63
2018-11-21T10:58:34.607Z,10.60
2018-11-21T11:01:23.386Z,10.07
2018-11-21T11:04:07.030Z,10.40
2018-11-21T11:06:54.256Z,40.73
2018-11-21T11:12:58.273Z,10.53
2018-11-21T11:15:45.493Z,11.17
2018-11-21T11:18:31.003Z,11.50
2018-11-21T11:21:16.864Z,12.27
2018-11-21T11:24:02.553Z,11.07
2018-11-21T11:26:48.841Z,10.80
2018-11-21T11:29:34.665Z,9.30
2018-11-21T11:35:13.118Z,11.27
2018-11-21T11:38:09.302Z,10.33
2018-11-21T11:40:56.595Z,10.40
2018-11-21T11:43:38.115Z,11.17
2018-11-21T11:46:25.614Z,9.70
2018-11-21T11:49:12.780Z,11.30
2018-11-21T11:52:05.702Z,11.20
2018-11-21T11:55:01.875Z,10.90
2018-11-21T11:57:49.049Z,13.07
2018-11-21T12:00:41.907Z,10.67
2018-11-21T12:03:29.101Z,10.83
2018-11-21T12:06:16.279Z,10.23
2018-11-21T12:12:04.737Z,10.23
2018-11-21T12:14:45.904Z,9.73
2018-11-21T12:17:33.131Z,9.70
2018-11-21T12:20:18.617Z,10.60
2018-11-21T12:23:14.604Z,9.63
2018-11-21T12:26:10.372Z,9.50
2018-11-21T12:29:00.785Z,9.80
2018-11-21T12:31:48.001Z,9.43
2018-11-21T12:34:54.609Z,8.77
2018-11-21T12:37:41.131Z,10.53
2018-11-21T12:40:28.344Z,10.50
2018-11-21T12:43:15.546Z,10.17
2018-11-21T12:46:09.069Z,9.67
2018-11-21T12:48:54.633Z,9.10
2018-11-21T12:51:36.267Z,11.80
2018-11-21T12:54:27.939Z,9.47
2018-11-21T12:57:20.918Z,7.20
2018-11-21T13:00:19.843Z,7.87
2018-11-21T13:02:56.762Z,6.60
2018-11-21T13:05:42.554Z,7.10
2018-11-21T13:08:31.435Z,9.13
2018-11-21T13:11:17.446Z,9.57
2018-11-21T13:14:22.690Z,9.93
2018-11-21T13:17:12.545Z,10.03
2018-11-21T13:19:58.279Z,10.27
